Terminal Aerodrome Forecast
Issued by NWS

Home | Current Version | Previous Version | Text Only | Print | Product List | Glossary On
Versions: 1 2 3 4 5 6 7 8 9 10 11 12 13 14 15 16 17 18 19
000
FTUS41 KBOX 261532 AAA
TAFACK
TAF AMD
KACK 261532Z 2616/2712 12022G30KT 1SM -DZ BR OVC002 WS020/16050KT
     FM261700 13019G30KT 1SM -DZ BR OVC002
     FM261900 14017G28KT 2SM -DZ BR VCSH OVC003
     FM270000 13011KT 2SM -DZ BR VCSH OVC003
     FM271100 19004KT 2SM -DZ BR OVC003=

USA.gov is the U.S. government's official web portal to all federal, state and local government web resources and services.